createdAt,value
2023-05-19T00:01:48.567Z,14.77
2023-05-19T00:04:19.156Z,16.02
2023-05-19T00:06:53.810Z,12.50
2023-05-19T00:09:26.598Z,14.85
2023-05-19T00:11:56.973Z,12.77
2023-05-19T00:14:29.150Z,16.42
2023-05-19T00:17:02.072Z,17.88
2023-05-19T00:19:32.560Z,13.55
2023-05-19T00:22:02.317Z,12.70
2023-05-19T00:24:34.754Z,14.65
2023-05-19T00:27:04.491Z,12.13
2023-05-19T00:29:34.213Z,13.67
2023-05-19T00:32:04.087Z,16.50
2023-05-19T00:34:33.905Z,11.00
2023-05-19T00:37:03.624Z,14.60
2023-05-19T00:39:35.951Z,17.38
2023-05-19T00:42:06.060Z,17.60
2023-05-19T00:44:35.732Z,15.68
2023-05-19T00:47:05.562Z,16.75
2023-05-19T00:49:35.459Z,13.88
2023-05-19T00:52:05.298Z,17.77
2023-05-19T00:54:37.901Z,16.00
2023-05-19T00:57:08.282Z,14.93
2023-05-19T00:59:38.039Z,17.05
2023-05-19T01:02:07.999Z,13.60
2023-05-19T01:04:39.606Z,12.77
2023-05-19T01:07:10.604Z,16.85
2023-05-19T01:09:43.529Z,13.85
2023-05-19T01:12:13.738Z,11.70
2023-05-19T01:14:43.608Z,12.02
2023-05-19T01:17:17.818Z,14.10
2023-05-19T01:20:02.555Z,13.57
2023-05-19T01:22:45.669Z,13.32
2023-05-19T01:25:59.797Z,14.30
2023-05-19T01:28:35.464Z,19.05
2023-05-19T01:31:08.278Z,12.52
2023-05-19T01:33:38.971Z,13.90
2023-05-19T01:36:10.733Z,19.33
2023-05-19T01:38:41.275Z,13.73
2023-05-19T01:41:11.398Z,14.05
2023-05-19T01:43:41.590Z,14.18
2023-05-19T01:46:14.403Z,14.68
2023-05-19T01:48:45.609Z,16.85
2023-05-19T01:51:16.593Z,14.30
2023-05-19T01:53:46.498Z,16.75
2023-05-19T01:56:20.162Z,20.58
2023-05-19T01:58:51.786Z,15.32
2023-05-19T02:01:34.190Z,15.43
2023-05-19T02:04:13.376Z,17.45
2023-05-19T02:06:45.556Z,14.02
2023-05-19T02:09:19.035Z,15.33
2023-05-19T02:11:50.513Z,15.27
2023-05-19T02:14:23.866Z,15.23
2023-05-19T02:16:57.033Z,16.45
2023-05-19T02:19:28.109Z,15.90
2023-05-19T02:21:58.619Z,13.23
2023-05-19T02:24:28.508Z,18.10
2023-05-19T02:26:58.290Z,15.05
2023-05-19T02:29:28.080Z,13.73
2023-05-19T02:32:00.446Z,17.50
2023-05-19T02:34:30.194Z,21.02
2023-05-19T02:36:59.907Z,15.60
2023-05-19T02:39:35.014Z,13.55
2023-05-19T02:42:05.059Z,15.63
2023-05-19T02:44:34.793Z,20.73
2023-05-19T02:47:07.675Z,18.23
2023-05-19T02:49:38.005Z,17.13
2023-05-19T02:52:08.681Z,16.30
2023-05-19T02:54:38.500Z,16.42
2023-05-19T02:57:08.473Z,20.50
2023-05-19T02:59:38.362Z,17.65
2023-05-19T03:02:11.552Z,15.90
2023-05-19T03:04:41.902Z,12.65
2023-05-19T03:07:13.558Z,15.25
2023-05-19T03:09:43.322Z,12.82
2023-05-19T03:12:13.056Z,17.60
2023-05-19T03:14:43.910Z,14.98
2023-05-19T03:17:16.315Z,12.40
2023-05-19T03:19:46.121Z,18.08
2023-05-19T03:22:15.853Z,16.60
2023-05-19T03:24:46.104Z,15.73
2023-05-19T03:27:16.674Z,14.57
2023-05-19T03:29:46.515Z,13.57
2023-05-19T03:32:19.957Z,16.03
2023-05-19T03:34:50.063Z,15.52
2023-05-19T03:37:20.131Z,15.57
2023-05-19T03:39:49.882Z,13.55
2023-05-19T03:42:20.023Z,17.88
2023-05-19T03:44:49.784Z,13.60
2023-05-19T03:47:22.856Z,15.18
2023-05-19T03:49:55.374Z,16.30
2023-05-19T03:52:53.750Z,13.23
2023-05-19T03:55:31.828Z,15.43
2023-05-19T03:58:02.659Z,14.05
2023-05-19T04:00:32.684Z,19.67
2023-05-19T04:03:05.421Z,16.58
2023-05-19T04:05:36.735Z,15.57
2023-05-19T04:08:06.534Z,16.40
2023-05-19T04:10:36.564Z,18.00
2023-05-19T04:13:06.347Z,18.98
2023-05-19T04:15:36.530Z,15.82
2023-05-19T04:18:09.057Z,13.80
2023-05-19T04:20:38.949Z,16.60
2023-05-19T04:23:08.839Z,19.38
2023-05-19T04:25:40.944Z,15.75
2023-05-19T04:28:10.938Z,15.30
2023-05-19T04:30:40.753Z,16.85
2023-05-19T04:33:13.216Z,17.17
2023-05-19T04:35:43.974Z,17.25
2023-05-19T04:38:19.070Z,20.98
2023-05-19T04:40:52.171Z,18.75
2023-05-19T04:43:22.395Z,17.75
2023-05-19T04:45:53.598Z,17.90
2023-05-19T04:48:27.555Z,18.27
2023-05-19T04:50:57.973Z,17.20
2023-05-19T04:53:28.650Z,22.73
2023-05-19T04:55:58.785Z,15.75
2023-05-19T04:58:28.652Z,20.42
2023-05-19T05:00:58.744Z,15.15
2023-05-19T05:03:31.282Z,18.15
2023-05-19T05:06:01.482Z,19.52
2023-05-19T05:08:31.261Z,18.27
2023-05-19T05:11:02.646Z,22.90
2023-05-19T05:13:33.388Z,19.90
2023-05-19T05:16:04.824Z,23.45
2023-05-19T05:18:38.786Z,20.20
2023-05-19T05:21:10.629Z,24.53
2023-05-19T05:23:41.004Z,19.15
2023-05-19T05:26:13.800Z,24.07
2023-05-19T05:28:44.372Z,23.92
2023-05-19T05:31:14.171Z,20.63
2023-05-19T05:33:46.806Z,22.48
2023-05-19T05:36:17.889Z,19.52
2023-05-19T05:38:47.636Z,24.55
2023-05-19T05:41:18.490Z,19.92
2023-05-19T05:43:50.138Z,21.75
2023-05-19T05:46:21.077Z,18.65
2023-05-19T05:48:54.354Z,23.40
2023-05-19T05:51:25.148Z,24.00
2023-05-19T05:53:57.087Z,19.60
2023-05-19T05:56:37.152Z,20.85
2023-05-19T05:59:08.823Z,21.08
2023-05-19T06:01:38.666Z,22.10
2023-05-19T06:04:14.339Z,25.25
2023-05-19T06:06:45.311Z,25.58
2023-05-19T06:09:18.633Z,23.53
2023-05-19T06:11:48.477Z,27.85
2023-05-19T06:14:18.914Z,24.60
2023-05-19T06:17:08.899Z,20.73
2023-05-19T06:19:41.324Z,24.80
2023-05-19T06:22:11.070Z,25.60
2023-05-19T06:24:41.095Z,21.67
2023-05-19T06:27:12.472Z,22.77
2023-05-19T06:29:42.243Z,19.35
2023-05-19T06:32:12.475Z,21.83
2023-05-19T06:34:45.777Z,20.60
2023-05-19T06:37:19.685Z,20.52
2023-05-19T06:39:49.866Z,22.15
2023-05-19T06:42:22.289Z,18.45
2023-05-19T06:44:59.646Z,19.10
2023-05-19T06:47:30.393Z,18.90
2023-05-19T06:50:02.977Z,18.33
2023-05-19T06:52:37.185Z,25.52
2023-05-19T06:55:08.231Z,24.83
2023-05-19T06:57:40.624Z,17.98
2023-05-19T07:00:14.592Z,20.27
2023-05-19T07:02:49.251Z,20.35
2023-05-19T07:05:22.119Z,18.03
2023-05-19T07:07:57.538Z,16.70
2023-05-19T07:10:30.442Z,16.67
2023-05-19T07:13:00.983Z,15.45
2023-05-19T07:15:34.505Z,13.38
2023-05-19T07:18:04.259Z,16.95
2023-05-19T07:20:36.617Z,13.03
2023-05-19T07:23:07.246Z,12.03
2023-05-19T07:25:38.532Z,12.07
2023-05-19T07:28:08.309Z,16.02
2023-05-19T07:30:39.153Z,10.32
2023-05-19T07:33:09.543Z,15.30
2023-05-19T07:35:41.949Z,16.05
2023-05-19T07:38:11.758Z,13.45
2023-05-19T07:40:41.563Z,11.13
2023-05-19T07:43:11.585Z,16.35
2023-05-19T07:45:41.543Z,10.18
2023-05-19T07:48:11.463Z,16.17
2023-05-19T07:50:43.759Z,14.50
2023-05-19T07:53:13.601Z,10.65
2023-05-19T07:55:43.398Z,15.13
2023-05-19T07:58:13.085Z,14.52
2023-05-19T08:00:43.491Z,9.50
2023-05-19T08:03:13.409Z,7.00
2023-05-19T08:05:46.151Z,11.20
2023-05-19T08:08:17.003Z,12.18
2023-05-19T08:10:46.833Z,7.85
2023-05-19T08:13:16.519Z,10.52
2023-05-19T08:15:46.403Z,13.32
2023-05-19T08:18:16.117Z,12.00
2023-05-19T08:20:48.842Z,7.85
2023-05-19T08:23:18.627Z,8.20
2023-05-19T08:25:48.534Z,11.93
2023-05-19T08:28:18.324Z,11.00
2023-05-19T08:30:48.037Z,10.13
2023-05-19T08:33:17.750Z,10.50
2023-05-19T08:35:50.770Z,13.50
2023-05-19T08:38:20.961Z,9.23
2023-05-19T08:40:51.157Z,8.27
2023-05-19T08:43:20.952Z,8.32
2023-05-19T08:45:50.646Z,9.70
2023-05-19T08:48:21.624Z,8.32
2023-05-19T08:51:02.940Z,7.72
2023-05-19T08:53:39.856Z,12.10
2023-05-19T08:56:13.748Z,9.93
2023-05-19T08:58:44.461Z,9.80
2023-05-19T09:01:17.236Z,7.22
2023-05-19T09:03:50.192Z,9.23
2023-05-19T09:06:22.928Z,7.85
2023-05-19T09:08:52.760Z,7.47
2023-05-19T09:11:22.673Z,11.52
2023-05-19T09:13:52.598Z,12.00
2023-05-19T09:16:22.534Z,8.32
2023-05-19T09:19:01.846Z,10.00
2023-05-19T09:21:34.560Z,14.80
2023-05-19T09:24:08.473Z,10.15
2023-05-19T09:26:42.301Z,8.25
2023-05-19T09:29:16.161Z,7.80
2023-05-19T09:31:52.728Z,10.48
2023-05-19T09:34:24.911Z,8.88
2023-05-19T09:36:58.112Z,10.30
2023-05-19T09:39:29.017Z,9.00
2023-05-19T09:41:59.635Z,9.10
2023-05-19T09:44:31.444Z,12.27
2023-05-19T09:47:02.369Z,10.82
2023-05-19T09:49:33.104Z,12.55
2023-05-19T09:52:06.539Z,12.38
2023-05-19T09:54:37.723Z,6.70
2023-05-19T09:57:08.945Z,9.27
2023-05-19T09:59:39.201Z,10.95
2023-05-19T10:02:09.187Z,11.55
2023-05-19T10:04:39.360Z,6.03
2023-05-19T10:07:13.176Z,7.30
2023-05-19T10:09:44.158Z,8.55
2023-05-19T10:12:14.378Z,6.30
2023-05-19T10:14:44.371Z,7.10
2023-05-19T10:17:14.534Z,9.82
2023-05-19T10:19:44.404Z,9.38
2023-05-19T10:22:16.760Z,8.38
2023-05-19T10:24:46.520Z,8.68
2023-05-19T10:27:17.423Z,8.60
2023-05-19T10:29:52.083Z,9.40
2023-05-19T10:32:25.273Z,9.82
2023-05-19T10:35:24.542Z,8.55
2023-05-19T10:38:01.656Z,8.15
2023-05-19T10:40:35.916Z,8.00
2023-05-19T10:43:14.558Z,10.90
2023-05-19T10:45:49.213Z,11.30
2023-05-19T10:48:19.357Z,9.80
2023-05-19T10:50:49.649Z,7.22
2023-05-19T10:53:23.086Z,5.93
2023-05-19T10:55:59.244Z,11.90
2023-05-19T10:58:52.304Z,9.70
2023-05-19T11:01:25.002Z,12.82
2023-05-19T11:03:57.612Z,13.02
2023-05-19T11:06:29.798Z,7.30
2023-05-19T11:09:05.026Z,7.72
2023-05-19T11:11:48.264Z,9.18
2023-05-19T11:14:19.844Z,8.02
2023-05-19T11:16:50.515Z,9.38
2023-05-19T11:19:22.297Z,7.20
2023-05-19T11:21:55.159Z,8.88
2023-05-19T11:24:40.763Z,8.73
2023-05-19T11:27:23.473Z,8.80
2023-05-19T11:29:54.083Z,8.85
2023-05-19T11:32:24.397Z,7.63
2023-05-19T11:34:54.905Z,11.13
2023-05-19T11:37:24.944Z,9.43
2023-05-19T11:39:57.339Z,7.18
2023-05-19T11:42:27.233Z,7.28
2023-05-19T11:44:58.541Z,11.48
2023-05-19T11:47:28.907Z,8.70
2023-05-19T11:49:59.485Z,10.15
2023-05-19T11:52:30.677Z,15.30
2023-05-19T11:55:05.514Z,9.25
2023-05-19T11:57:35.252Z,12.52
2023-05-19T12:00:09.139Z,10.15
2023-05-19T12:02:39.089Z,9.40
2023-05-19T12:05:21.906Z,7.93
2023-05-19T12:07:52.396Z,7.25
2023-05-19T12:10:25.724Z,8.63
2023-05-19T12:12:56.130Z,7.85
2023-05-19T12:15:27.175Z,9.38
2023-05-19T12:18:00.496Z,8.82
2023-05-19T12:20:32.100Z,12.10
2023-05-19T12:23:02.074Z,11.93
2023-05-19T12:25:34.943Z,7.38
2023-05-19T12:28:05.739Z,10.63
2023-05-19T12:30:36.030Z,6.63
2023-05-19T12:33:06.136Z,10.13
2023-05-19T12:35:36.556Z,11.02
2023-05-19T12:38:07.461Z,13.50
2023-05-19T12:40:40.287Z,8.10
2023-05-19T12:43:10.632Z,9.48
2023-05-19T12:45:40.774Z,9.85
2023-05-19T12:48:16.205Z,9.30
2023-05-19T12:50:47.045Z,8.90
2023-05-19T12:53:19.276Z,8.20
2023-05-19T12:55:55.601Z,7.10
2023-05-19T12:58:25.636Z,10.35
2023-05-19T13:01:01.625Z,6.97
2023-05-19T13:03:31.621Z,8.38
2023-05-19T13:06:02.017Z,7.20
2023-05-19T13:08:32.055Z,7.95
2023-05-19T13:11:04.579Z,6.22
2023-05-19T13:13:34.983Z,7.50
2023-05-19T13:16:04.849Z,13.45
2023-05-19T13:18:37.849Z,7.45
2023-05-19T13:21:08.327Z,7.07
2023-05-19T13:23:38.037Z,7.32
2023-05-19T13:26:12.779Z,9.07
2023-05-19T13:28:42.562Z,9.60
2023-05-19T13:31:12.328Z,7.40
2023-05-19T13:33:42.301Z,8.98
2023-05-19T13:36:12.125Z,6.88
2023-05-19T13:38:42.086Z,5.75
2023-05-19T13:41:16.035Z,6.93
2023-05-19T13:43:46.077Z,8.17
2023-05-19T13:46:15.861Z,7.90
2023-05-19T13:48:45.573Z,6.47
2023-05-19T13:51:15.374Z,5.22
2023-05-19T13:53:45.199Z,5.68
2023-05-19T13:56:17.633Z,7.20
2023-05-19T13:58:47.894Z,6.80
2023-05-19T14:01:17.685Z,6.40
2023-05-19T14:03:47.464Z,8.63
2023-05-19T14:06:17.276Z,8.07
2023-05-19T14:08:48.156Z,7.40
2023-05-19T14:11:23.510Z,6.57
2023-05-19T14:13:53.470Z,9.32
2023-05-19T14:16:26.249Z,6.65
2023-05-19T14:18:56.191Z,6.10
2023-05-19T14:21:26.000Z,6.82
2023-05-19T14:23:55.777Z,6.13
2023-05-19T14:26:29.397Z,7.43
2023-05-19T14:28:59.776Z,5.82
2023-05-19T14:31:29.542Z,6.50
2023-05-19T14:33:59.282Z,5.97
2023-05-19T14:36:29.029Z,6.07
2023-05-19T14:38:58.768Z,6.93
2023-05-19T14:41:31.294Z,5.28
2023-05-19T14:44:01.013Z,7.32
2023-05-19T14:46:30.779Z,7.65
2023-05-19T14:49:00.735Z,7.50
2023-05-19T14:51:30.444Z,3.90
2023-05-19T14:54:00.365Z,4.93
2023-05-19T14:56:32.733Z,6.10
2023-05-19T14:59:04.520Z,8.00
2023-05-19T15:01:34.374Z,5.32
2023-05-19T15:04:04.152Z,7.50
2023-05-19T15:06:34.001Z,7.22
2023-05-19T15:09:04.182Z,4.60
2023-05-19T15:11:36.790Z,4.25
2023-05-19T15:14:06.598Z,7.50
2023-05-19T15:16:36.379Z,7.10
2023-05-19T15:19:06.133Z,6.35
2023-05-19T15:21:35.863Z,5.07
2023-05-19T15:24:05.588Z,4.53
2023-05-19T15:26:37.944Z,7.97
2023-05-19T15:29:07.672Z,4.93
2023-05-19T15:31:38.433Z,6.93
2023-05-19T15:34:08.452Z,6.85
2023-05-19T15:36:38.183Z,9.10
2023-05-19T15:39:07.925Z,5.78
2023-05-19T15:41:40.262Z,8.18
2023-05-19T15:44:10.042Z,4.55
2023-05-19T15:46:39.849Z,8.03
2023-05-19T15:49:09.554Z,8.15
2023-05-19T15:51:42.823Z,6.60
2023-05-19T15:54:12.555Z,5.25
2023-05-19T15:56:44.909Z,5.65
2023-05-19T15:59:14.668Z,5.82
2023-05-19T16:01:44.829Z,8.38
2023-05-19T16:04:15.029Z,7.35
2023-05-19T16:06:45.196Z,6.43
2023-05-19T16:09:14.908Z,7.47
2023-05-19T16:11:47.393Z,7.75
2023-05-19T16:14:17.224Z,5.43
2023-05-19T16:16:47.393Z,8.15
2023-05-19T16:19:17.355Z,6.97
2023-05-19T16:21:47.081Z,7.75
2023-05-19T16:24:16.832Z,6.72
2023-05-19T16:26:49.161Z,4.90
2023-05-19T16:29:18.995Z,6.30
2023-05-19T16:31:48.756Z,4.90
2023-05-19T16:34:18.974Z,6.15
2023-05-19T16:36:48.703Z,5.43
2023-05-19T16:39:18.474Z,7.60
2023-05-19T16:41:50.936Z,6.30
2023-05-19T16:44:21.005Z,7.50
2023-05-19T16:46:50.782Z,8.97
2023-05-19T16:49:20.452Z,5.82
2023-05-19T16:51:50.213Z,5.93
2023-05-19T16:54:19.952Z,4.50
2023-05-19T16:56:52.842Z,6.40
2023-05-19T16:59:22.717Z,5.32
2023-05-19T17:01:52.531Z,7.30
2023-05-19T17:04:22.229Z,11.15
2023-05-19T17:06:52.188Z,5.57
2023-05-19T17:09:25.468Z,4.70
2023-05-19T17:11:58.525Z,6.38
2023-05-19T17:14:28.857Z,4.45
2023-05-19T17:16:58.902Z,4.38
2023-05-19T17:19:28.907Z,6.53
2023-05-19T17:21:58.746Z,4.32
2023-05-19T17:24:28.947Z,6.53
2023-05-19T17:27:01.226Z,5.05
2023-05-19T17:29:31.008Z,6.60
2023-05-19T17:32:00.764Z,6.80
2023-05-19T17:34:30.813Z,7.88
2023-05-19T17:37:00.569Z,6.57
2023-05-19T17:39:30.285Z,5.30
2023-05-19T17:42:02.782Z,7.88
2023-05-19T17:44:32.575Z,6.20
2023-05-19T17:47:02.577Z,5.30
2023-05-19T17:49:32.339Z,6.67
2023-05-19T17:52:02.693Z,5.63
2023-05-19T17:54:33.203Z,5.68
2023-05-19T17:57:06.800Z,7.97
2023-05-19T17:59:37.562Z,4.10
2023-05-19T18:02:08.210Z,5.90
2023-05-19T18:04:38.758Z,7.85
2023-05-19T18:07:10.153Z,6.13
2023-05-19T18:09:40.088Z,6.00
2023-05-19T18:12:12.733Z,5.63
2023-05-19T18:14:42.956Z,8.35
2023-05-19T18:17:12.739Z,8.23
2023-05-19T18:19:42.605Z,7.15
2023-05-19T18:22:14.974Z,6.60
2023-05-19T18:24:44.739Z,8.07
2023-05-19T18:27:17.137Z,5.80
2023-05-19T18:29:46.887Z,4.80
2023-05-19T18:32:17.921Z,7.53
2023-05-19T18:34:47.783Z,11.27
2023-05-19T18:37:17.487Z,8.07
2023-05-19T18:39:47.301Z,4.95
2023-05-19T18:42:19.644Z,4.80
2023-05-19T18:44:50.785Z,7.10
2023-05-19T18:47:22.956Z,4.70
2023-05-19T18:49:52.844Z,4.70
2023-05-19T18:52:22.538Z,6.50
2023-05-19T18:54:52.278Z,6.60
2023-05-19T18:57:24.608Z,4.70
2023-05-19T18:59:54.441Z,6.43
2023-05-19T19:02:24.210Z,11.63
2023-05-19T19:04:54.154Z,7.20
2023-05-19T19:07:24.015Z,4.50
2023-05-19T19:09:53.703Z,6.60
2023-05-19T19:12:26.335Z,8.65
2023-05-19T19:14:56.100Z,5.32
2023-05-19T19:17:26.011Z,5.80
2023-05-19T19:19:56.138Z,4.90
2023-05-19T19:22:26.336Z,6.72
2023-05-19T19:24:56.352Z,9.02
2023-05-19T19:27:31.154Z,5.63
2023-05-19T19:30:01.507Z,6.85
2023-05-19T19:32:31.603Z,5.07
2023-05-19T19:35:01.391Z,9.85
2023-05-19T19:37:31.104Z,9.00
2023-05-19T19:40:00.969Z,8.02
2023-05-19T19:42:34.300Z,5.90
2023-05-19T19:45:04.283Z,6.00
2023-05-19T19:47:34.021Z,6.53
2023-05-19T19:50:05.886Z,6.95
2023-05-19T19:52:35.791Z,8.00
2023-05-19T19:55:05.749Z,5.47
2023-05-19T19:57:38.084Z,6.00
2023-05-19T20:00:10.454Z,8.05
2023-05-19T20:02:55.312Z,7.93
2023-05-19T20:05:30.147Z,6.03
2023-05-19T20:08:00.026Z,4.65
2023-05-19T20:10:29.902Z,6.00
2023-05-19T20:13:02.246Z,7.00
2023-05-19T20:15:31.999Z,6.73
2023-05-19T20:18:01.769Z,7.38
2023-05-19T20:20:31.784Z,10.70
2023-05-19T20:23:01.632Z,7.70
2023-05-19T20:25:31.382Z,5.90
2023-05-19T20:28:04.168Z,7.30
2023-05-19T20:30:34.019Z,6.33
2023-05-19T20:33:03.949Z,8.40
2023-05-19T20:35:34.488Z,4.88
2023-05-19T20:38:05.049Z,9.10
2023-05-19T20:40:35.266Z,6.25
2023-05-19T20:43:08.018Z,6.00
2023-05-19T20:45:37.956Z,4.00
2023-05-19T20:48:08.911Z,6.05
2023-05-19T20:50:38.641Z,7.43
2023-05-19T20:53:08.570Z,5.75
2023-05-19T20:55:38.816Z,8.07
2023-05-19T20:58:11.431Z,3.90
2023-05-19T21:00:41.157Z,7.60
2023-05-19T21:03:11.660Z,3.40
2023-05-19T21:05:41.565Z,7.18
2023-05-19T21:08:12.962Z,6.50
2023-05-19T21:10:42.857Z,7.05
2023-05-19T21:13:15.254Z,5.63
2023-05-19T21:15:45.033Z,5.80
2023-05-19T21:18:15.123Z,5.68
2023-05-19T21:20:44.960Z,5.88
2023-05-19T21:23:15.476Z,7.78
2023-05-19T21:25:45.559Z,6.30
2023-05-19T21:28:18.124Z,5.75
2023-05-19T21:30:50.597Z,5.78
2023-05-19T21:33:20.372Z,5.40
2023-05-19T21:35:50.162Z,7.05
2023-05-19T21:38:23.878Z,8.20
2023-05-19T21:40:54.547Z,6.22
2023-05-19T21:43:27.014Z,5.88
2023-05-19T21:45:56.875Z,8.00
2023-05-19T21:48:27.373Z,11.23
2023-05-19T21:50:58.022Z,5.63
2023-05-19T21:53:28.382Z,6.75
2023-05-19T21:55:58.199Z,8.05
2023-05-19T21:58:30.649Z,6.90
2023-05-19T22:01:00.572Z,5.10
2023-05-19T22:03:30.334Z,6.45
2023-05-19T22:06:00.162Z,9.60
2023-05-19T22:08:29.808Z,6.18
2023-05-19T22:10:59.641Z,7.43
2023-05-19T22:13:32.117Z,6.65
2023-05-19T22:16:04.510Z,9.30
2023-05-19T22:18:34.338Z,7.03
2023-05-19T22:21:04.159Z,9.40
2023-05-19T22:23:34.002Z,6.97
2023-05-19T22:26:03.705Z,7.78
2023-05-19T22:28:36.012Z,5.57
2023-05-19T22:31:06.155Z,8.32
2023-05-19T22:33:35.979Z,4.65
2023-05-19T22:36:05.701Z,6.25
2023-05-19T22:38:35.421Z,7.28
2023-05-19T22:41:05.188Z,5.57
2023-05-19T22:43:37.520Z,9.05
2023-05-19T22:46:07.808Z,6.43
2023-05-19T22:48:37.542Z,7.90
2023-05-19T22:51:07.614Z,8.03
2023-05-19T22:53:37.329Z,10.77
2023-05-19T22:56:07.491Z,8.25
2023-05-19T22:58:39.900Z,8.80
2023-05-19T23:01:09.878Z,8.20
2023-05-19T23:03:39.594Z,8.32
2023-05-19T23:06:09.406Z,8.57
2023-05-19T23:08:39.189Z,6.75
2023-05-19T23:11:09.100Z,7.38
2023-05-19T23:13:41.707Z,7.90
2023-05-19T23:16:11.444Z,7.07
2023-05-19T23:18:41.295Z,8.35
2023-05-19T23:21:10.992Z,9.82
2023-05-19T23:23:40.665Z,6.43
2023-05-19T23:26:10.475Z,8.07
2023-05-19T23:28:42.871Z,11.40
2023-05-19T23:31:13.001Z,9.02
2023-05-19T23:33:42.856Z,8.68
2023-05-19T23:36:13.699Z,7.20
2023-05-19T23:38:43.483Z,7.03
2023-05-19T23:41:13.315Z,10.13
2023-05-19T23:43:45.867Z,10.15
2023-05-19T23:46:15.771Z,11.30
2023-05-19T23:48:45.678Z,8.25
2023-05-19T23:51:15.611Z,7.72
2023-05-19T23:53:45.656Z,8.88
2023-05-19T23:56:15.363Z,7.90
2023-05-19T23:58:47.622Z,7.50
